West Branch, Iowa
Current Conditions -  °F | °C
As of 9:52 PM on Wednesday 17 Dec 2014 (Local Time) from KIOW Reporting Station
Clear Clear  
Wind Chill: 19°   Ceiling: Unl
Heat Index: 19°   Visibility: 10mi
Dew Point: 14°   Wind: 3mph
Humidity: 81%   Direction: 340°NNW
Pressure: 30.32"   Gusts: NA
Location:  41.67°N, 91.35°W
Report Text: KIOW 180352Z AUTO 34003KT 10SM CLR M07/M10 A3032 RMK AO2 SLP278 T10721100
Loading
Personal Weather Stations






























Interactive Weather Map New forecast layout! Learn more

10-Day Weather Forecast

Advertisements
Track Severe Weather on mobile